ADDS METAR Data INFO
IDs: Format: Raw Decoded Include TAF

Data at: 0804 UTC 24 May 2018

KF05 240755Z AUTO 14010KT 10SM CLR 24/18 A3004 RMK AO1 T02430180
KF05 240735Z AUTO 15010KT 10SM SCT080 BKN100 25/18 A3003 RMK AO1 T02450180
KF05 240715Z AUTO 15010KT 10SM BKN080 24/18 A3004 RMK AO1 T02440180
KF05 240655Z AUTO 14009KT 10SM CLR 24/18 A3004 RMK AO1 T02420180
KF05 240635Z AUTO 14007KT 10SM CLR 25/18 A3005 RMK AO1 T02450179
KF05 240615Z AUTO 15008KT 10SM CLR 25/18 A3005 RMK AO1 T02460180
KF05 240555Z AUTO 14008KT 10SM CLR 25/18 A3005 RMK AO1 LTG DSNT N T02500179 10330 20166 403300166
KF05 240535Z AUTO 14010KT 10SM CLR 25/18 A3005 RMK AO1 T02540177
KF05 240515Z AUTO 14010KT 10SM CLR 26/18 A3005 RMK AO1 T02580177
KF05 240455Z AUTO 15012KT 10SM CLR 26/18 A3005 RMK AO1 T02610177
KF05 240435Z AUTO 14010KT 10SM CLR 26/18 A3005 RMK AO1 T02640177
KF05 240415Z AUTO 14010KT 10SM CLR 27/18 A3005 RMK AO1 T02650178
KF05 240355Z AUTO 14009KT 10SM CLR 27/18 A3004 RMK AO1 T02650180
KF05 240335Z AUTO 13007KT 10SM CLR 27/18 A3004 RMK AO1 T02650180
KF05 240315Z AUTO 12007KT 10SM CLR 27/18 A3003 RMK AO1 T02660180
KF05 240255Z AUTO 12006KT 10SM CLR 27/18 A3003 RMK AO1 T02700179
KF05 240235Z AUTO 13006KT 10SM CLR 28/18 A3002 RMK AO1 T02760178
KF05 240215Z AUTO 13007KT 10SM CLR 28/18 A3000 RMK AO1 T02800177
KF05 240155Z AUTO 13007KT 10SM CLR 29/18 A2999 RMK AO1 T02860177
KF05 240135Z AUTO 13007KT 10SM CLR 29/17 A2999 RMK AO1 T02930174
KF05 240115Z AUTO 13010KT 10SM CLR 30/17 A2997 RMK AO1 T03020170
KF05 240055Z AUTO 13013G17KT 10SM CLR 31/16 A2996 RMK AO1 T03090164
KF05 240035Z AUTO 13013KT 10SM CLR 32/16 A2996 RMK AO1 T03150164
KF05 240015Z AUTO 14013G16KT 10SM CLR 32/16 A2996 RMK AO1 T03190161
KF05 232355Z AUTO 13014G17KT 10SM CLR 32/16 A2995 RMK AO1 T03220159 10330 20166
KF05 232335Z AUTO 14013KT 10SM CLR 33/16 A2995 RMK AO1 T03250159
KF05 232315Z AUTO 14014G20KT 10SM CLR 33/16 A2996 RMK AO1 T03260162
KF05 232255Z AUTO 14011G15KT 10SM CLR 33/16 A2997 RMK AO1 T03270162
KF05 232235Z AUTO 14012KT 10SM CLR 33/16 A2997 RMK AO1 T03290162
KF05 232215Z AUTO 16007G15KT 10SM SCT060 33/17 A2998 RMK AO1 T03280165
KF05 232155Z AUTO 13010G16KT 10SM CLR 33/16 A2998 RMK AO1 T03300161
KF05 232135Z AUTO 14011G16KT 10SM SCT055 33/17 A2999 RMK AO1 T03280166
KF05 232115Z AUTO 16010G15KT 10SM SCT055 33/17 A2999 RMK AO1 T03270165
KF05 232055Z AUTO 17011G18KT 10SM SCT055 33/17 A3000 RMK AO1 T03250169
KF05 232035Z AUTO 14010KT 10SM CLR 33/17 A3001 RMK AO1 T03260170
KF05 232015Z AUTO 15009G15KT 10SM SCT050 32/17 A3001 RMK AO1 T03220171
KF05 231955Z AUTO 15012G16KT 10SM SCT050 32/17 A3002 RMK AO1 T03220173
KF05 231935Z AUTO 14012G16KT 10SM SCT050 32/18 A3003 RMK AO1 T03210178
KF05 231915Z AUTO 18009G14KT 140V210 10SM SCT050 32/18 A3003 RMK AO1 T03180178
KF05 231855Z AUTO 15011KT 10SM CLR 32/18 A3004 RMK AO1 T03150182
KF05 231835Z AUTO 16009G14KT 10SM CLR 31/19 A3005 RMK AO1 T03100186
KF05 231815Z AUTO 14008KT 090V150 10SM CLR 31/19 A3006 RMK AO1 T03060194
KF05 231755Z AUTO 15009KT 10SM CLR 30/19 A3006 RMK AO1 T03000194 10320 20166
KF05 231735Z AUTO 14007KT 10SM CLR 29/19 A3007 RMK AO1 T02920192
KF05 231715Z AUTO 16009KT 10SM CLR 29/19 A3007 RMK AO1 T02930193
KF05 231655Z AUTO 19008KT 10SM SCT070 30/19 A3007 RMK AO1 T02950189
KF05 231635Z AUTO 19006KT 10SM BKN070 29/19 A3007 RMK AO1 T02900192
KF05 231615Z AUTO 20009KT 180V240 10SM CLR 29/19 A3007 RMK AO1 T02850191
KF05 231555Z AUTO 19009KT 10SM SCT065 28/19 A3008 RMK AO1 T02810193
KF05 231535Z AUTO 20009KT 10SM CLR 28/19 A3008 RMK AO1 T02770193
KF05 231515Z AUTO 20007KT 10SM SCT065 27/20 A3008 RMK AO1 T02720195
KF05 231455Z AUTO 19009KT 10SM SCT065 27/20 A3008 RMK AO1 T02690196
KF05 231435Z AUTO 18009KT 10SM CLR 26/19 A3007 RMK AO1 T02620193
KF05 231415Z AUTO 17009KT 10SM SCT065 SCT080 26/19 A3007 RMK AO1 T02550194
KF05 231355Z AUTO 16008KT 10SM SCT065 BKN075 25/20 A3007 RMK AO1 T02480195
KF05 231335Z AUTO 16007KT 10SM BKN075 24/20 A3006 RMK AO1 T02410197
KF05 231315Z AUTO 19007KT 10SM CLR 23/20 A3006 RMK AO1 T02300199
KF05 231255Z AUTO 16006KT 10SM CLR 22/20 A3006 RMK AO1 T02240201
KF05 231235Z AUTO 17005KT 10SM CLR 22/20 A3005 RMK AO1 T02170200
KF05 231215Z AUTO 15005KT 10SM SCT060 22/20 A3005 RMK AO1 T02150198
KF05 231155Z AUTO 14004KT 10SM SCT060 SCT070 SCT080 22/20 A3003 RMK AO1 T02150197 10320 20166
KF05 231135Z AUTO 15005KT 10SM BKN070 BKN080 21/20 A3002 RMK AO1 T02140197
KF05 231115Z AUTO 14003KT 10SM BKN070 BKN080 21/20 A3002 RMK AO1 T02110195
KF05 231055Z AUTO 00000KT 10SM SCT070 21/19 A3001 RMK AO1 T02100194
KF05 231035Z AUTO 15004KT 10SM CLR 21/19 A3000 RMK AO1 T02110194
KF05 231015Z AUTO 16004KT 10SM CLR 21/20 A2999 RMK AO1 T02120195
KF05 230955Z AUTO 16004KT 10SM CLR 22/20 A2999 RMK AO1 T02150195
KF05 230935Z AUTO 15005KT 10SM CLR 22/19 A2998 RMK AO1 T02170194
KF05 230915Z AUTO 15005KT 10SM CLR 22/19 A2998 RMK AO1 T02200192
KF05 230855Z AUTO 16007KT 10SM CLR 22/19 A2997 RMK AO1 T02210191
KF05 230835Z AUTO 17008KT 10SM CLR 23/19 A2997 RMK AO1 T02250190
KF05 230815Z AUTO 17008KT 10SM CLR 23/19 A2997 RMK AO1 T02310190
KF05 230755Z AUTO 15010KT 10SM CLR 23/19 A2996 RMK AO1 T02330188
KF05 230735Z AUTO 15011KT 10SM CLR 24/19 A2996 RMK AO1 T02360188
KF05 230715Z AUTO 15011KT 10SM CLR 24/19 A2996 RMK AO1 T02370187
KF05 230655Z AUTO 15011KT 10SM CLR 24/19 A2997 RMK AO1 T02400187
KF05 230635Z AUTO 16012KT 10SM CLR 24/19 A2997 RMK AO1 T02410187
KF05 230615Z AUTO 15011KT 10SM CLR 24/19 A2998 RMK AO1 T02410188
KF05 230555Z AUTO 15010KT 10SM CLR 24/19 A2999 RMK AO1 T02420187 10320 20166 403200166
KF05 230535Z AUTO 15009KT 10SM CLR 25/19 A2999 RMK AO1 T02450188
KF05 230515Z AUTO 14009KT 10SM CLR 25/19 A2999 RMK AO1 T02450187
KF05 230455Z AUTO 15008KT 10SM CLR 25/19 A2999 RMK AO1 T02470187
KF05 230435Z AUTO 14008KT 10SM CLR 25/19 A2999 RMK AO1 T02480188
KF05 230415Z AUTO 13007KT 10SM CLR 25/19 A2999 RMK AO1 T02480188
KF05 230355Z AUTO 12006KT 10SM CLR 25/19 A2998 RMK AO1 T02500190
KF05 230335Z AUTO 13006KT 10SM CLR 25/19 A2997 RMK AO1 LTG DSNT N T02540188
KF05 230315Z AUTO 13007KT 10SM CLR 26/19 A2996 RMK AO1 T02580188
KF05 230255Z AUTO 13008KT 10SM CLR 26/19 A2996 RMK AO1 LTG DSNT N T02620187
KF05 230240Z AUTO 13008KT 10SM CLR 27/19 A2995 RMK AO1 T02660186
KF05 230220Z AUTO 12009KT 10SM CLR 27/19 A2995 RMK AO1 T02690186
KF05 230200Z AUTO 12009KT 10SM CLR 27/19 A2994 RMK AO1 T02740186
KF05 230135Z AUTO 12009KT 10SM CLR 28/18 A2993 RMK AO1 T02830184
KF05 230115Z AUTO 12009KT 10SM CLR 29/18 A2993 RMK AO1 T02870183
KF05 230055Z AUTO 13010KT 10SM CLR 29/18 A2993 RMK AO1 T02930183
KF05 230035Z AUTO 13009KT 10SM CLR 30/18 A2992 RMK AO1 T03010179
KF05 230015Z AUTO 13014KT 10SM CLR 31/17 A2992 RMK AO1 T03070173
KF05 222355Z AUTO 13012KT 10SM SCT060 31/17 A2992 RMK AO1 T03120171 10320 20166
KF05 222335Z AUTO 14008G14KT 10SM SCT060 31/17 A2992 RMK AO1 T03100165
KF05 222315Z AUTO 14009KT 10SM SCT060 31/17 A2992 RMK AO1 T03120165
KF05 222255Z AUTO 15011KT 10SM CLR 32/16 A2992 RMK AO1 T03160163
KF05 222235Z AUTO 13011G15KT 10SM CLR 32/16 A2992 RMK AO1 T03200164
KF05 222215Z AUTO 14008G16KT 10SM SCT050 32/17 A2992 RMK AO1 T03180168
KF05 222155Z AUTO 14010G15KT 10SM SCT050 32/17 A2993 RMK AO1 T03190171
KF05 222135Z AUTO 13009KT 10SM SCT050 BKN065 32/17 A2993 RMK AO1 T03160167
KF05 222115Z AUTO 14010G16KT 10SM SCT050 32/17 A2993 RMK AO1 T03150165
KF05 222055Z AUTO 14012KT 10SM SCT050 32/16 A2994 RMK AO1 T03150164
KF05 222035Z AUTO 14010KT 10SM SCT050 32/17 A2995 RMK AO1 T03160168
KF05 222015Z AUTO 13013G17KT 10SM SCT050 32/17 A2995 RMK AO1 T03150171